createdAt,value
2018-02-20T00:01:22.953Z,23.73
2018-02-20T00:03:51.351Z,24.53
2018-02-20T00:06:19.800Z,25.10
2018-02-20T00:08:48.204Z,27.97
2018-02-20T00:11:16.653Z,25.13
2018-02-20T00:13:45.077Z,24.00
2018-02-20T00:16:13.495Z,27.87
2018-02-20T00:18:41.922Z,24.17
2018-02-20T00:21:10.343Z,23.87
2018-02-20T00:23:38.811Z,25.47
2018-02-20T00:26:07.292Z,24.43
2018-02-20T00:28:35.731Z,25.50
2018-02-20T00:31:04.172Z,28.43
2018-02-20T00:33:32.613Z,26.43
2018-02-20T00:36:01.017Z,27.27
2018-02-20T00:38:29.476Z,24.33
2018-02-20T00:40:57.881Z,26.23
2018-02-20T00:43:26.320Z,25.80
2018-02-20T00:45:54.716Z,29.43
2018-02-20T00:48:23.168Z,27.23
2018-02-20T00:50:51.605Z,27.63
2018-02-20T00:53:20.061Z,26.60
2018-02-20T00:55:48.457Z,29.07
2018-02-20T00:58:16.901Z,29.00
2018-02-20T01:00:45.296Z,29.07
2018-02-20T01:03:13.796Z,30.60
2018-02-20T01:05:42.238Z,25.43
2018-02-20T01:08:10.682Z,29.40
2018-02-20T01:10:39.098Z,25.40
2018-02-20T01:13:07.536Z,27.97
2018-02-20T01:15:36.010Z,29.50
2018-02-20T01:18:04.481Z,30.00
2018-02-20T01:20:32.886Z,26.97
2018-02-20T01:23:01.337Z,26.77
2018-02-20T01:25:29.732Z,25.17
2018-02-20T01:27:58.172Z,26.90
2018-02-20T01:30:26.600Z,29.20
2018-02-20T01:32:54.997Z,28.10
2018-02-20T01:35:23.440Z,28.00
2018-02-20T01:37:51.849Z,26.30
2018-02-20T01:40:20.302Z,27.73
2018-02-20T01:42:48.700Z,30.33
2018-02-20T01:45:17.138Z,26.03
2018-02-20T01:47:45.552Z,31.40
2018-02-20T01:50:13.988Z,28.83
2018-02-20T01:52:42.455Z,27.93
2018-02-20T01:55:10.892Z,27.20
2018-02-20T01:57:39.403Z,29.67
2018-02-20T02:00:07.879Z,29.97
2018-02-20T02:02:36.422Z,29.07
2018-02-20T02:05:04.912Z,27.37
2018-02-20T02:07:33.402Z,30.00
2018-02-20T02:10:01.940Z,26.70
2018-02-20T02:12:30.450Z,29.87
2018-02-20T02:14:58.967Z,29.40
2018-02-20T02:17:27.467Z,31.90
2018-02-20T02:19:55.973Z,27.60
2018-02-20T02:22:24.477Z,29.73
2018-02-20T02:24:52.942Z,29.13
2018-02-20T02:27:21.462Z,33.70
2018-02-20T02:29:49.966Z,32.53
2018-02-20T02:32:18.522Z,30.23
2018-02-20T02:34:46.983Z,27.97
2018-02-20T02:37:15.522Z,29.60
2018-02-20T02:39:44.000Z,28.67
2018-02-20T02:42:12.489Z,32.53
2018-02-20T02:44:40.966Z,30.37
2018-02-20T02:47:09.479Z,28.67
2018-02-20T02:49:37.995Z,32.03
2018-02-20T02:52:06.463Z,28.53
2018-02-20T02:54:35.042Z,30.10
2018-02-20T02:57:03.503Z,31.73
2018-02-20T02:59:31.971Z,32.87
2018-02-20T03:02:00.474Z,32.67
2018-02-20T03:04:29.006Z,29.57
2018-02-20T03:06:57.516Z,34.80
2018-02-20T03:09:26.006Z,35.73
2018-02-20T03:11:54.473Z,29.93
2018-02-20T03:14:22.978Z,32.63
2018-02-20T03:16:51.488Z,35.57
2018-02-20T03:19:19.997Z,31.97
2018-02-20T03:21:48.468Z,36.23
2018-02-20T03:24:17.008Z,31.70
2018-02-20T03:26:45.494Z,32.60
2018-02-20T03:29:13.954Z,28.63
2018-02-20T03:31:42.461Z,34.30
2018-02-20T03:34:10.942Z,31.47
2018-02-20T03:36:39.478Z,36.90
2018-02-20T03:39:07.946Z,40.23
2018-02-20T03:41:36.440Z,36.87
2018-02-20T03:44:04.941Z,38.93
2018-02-20T03:46:33.488Z,36.90
2018-02-20T03:49:01.982Z,37.13
2018-02-20T03:51:30.596Z,38.63
2018-02-20T03:53:59.063Z,34.53
2018-02-20T03:56:27.534Z,36.13
2018-02-20T03:58:56.046Z,36.10
2018-02-20T04:01:24.547Z,33.97
2018-02-20T04:03:53.024Z,34.50
2018-02-20T04:06:21.546Z,35.53
2018-02-20T04:08:50.010Z,38.60
2018-02-20T04:11:18.506Z,33.93
2018-02-20T04:13:47.006Z,37.13
2018-02-20T04:16:15.530Z,38.57
2018-02-20T04:18:44.018Z,34.70
2018-02-20T04:21:12.521Z,34.33
2018-02-20T04:23:41.045Z,36.43
2018-02-20T04:26:09.503Z,38.80
2018-02-20T04:28:37.955Z,35.80
2018-02-20T04:31:06.472Z,31.87
2018-02-20T04:33:34.998Z,34.10
2018-02-20T04:36:03.510Z,33.87
2018-02-20T04:38:31.970Z,34.40
2018-02-20T04:41:00.451Z,41.10
2018-02-20T04:43:28.950Z,33.23
2018-02-20T04:45:57.409Z,36.97
2018-02-20T04:48:25.907Z,34.67
2018-02-20T04:50:54.378Z,37.10
2018-02-20T04:53:22.877Z,37.27
2018-02-20T04:55:51.336Z,40.27
2018-02-20T04:58:19.838Z,73.97
2018-02-20T05:00:48.329Z,82.43
2018-02-20T05:03:16.826Z,51.97
2018-02-20T05:05:45.285Z,47.40
2018-02-20T05:08:13.745Z,38.77
2018-02-20T05:10:42.237Z,40.63
2018-02-20T05:13:10.734Z,89.73
2018-02-20T05:15:39.237Z,43.00
2018-02-20T05:18:07.706Z,39.03
2018-02-20T05:20:36.209Z,40.67
2018-02-20T05:23:04.706Z,32.40
2018-02-20T05:25:33.207Z,35.57
2018-02-20T05:28:01.687Z,47.90
2018-02-20T05:30:30.195Z,35.17
2018-02-20T05:32:59.391Z,34.77
2018-02-20T05:35:27.845Z,35.43
2018-02-20T05:37:56.357Z,34.00
2018-02-20T05:40:24.818Z,36.47
2018-02-20T05:42:53.338Z,37.10
2018-02-20T05:45:21.813Z,37.33
2018-02-20T05:47:50.297Z,46.13
2018-02-20T05:50:18.799Z,45.33
2018-02-20T05:52:47.279Z,35.77
2018-02-20T05:55:15.775Z,38.73
2018-02-20T05:57:44.269Z,37.77
2018-02-20T06:00:12.802Z,37.63
2018-02-20T06:02:41.270Z,36.43
2018-02-20T06:05:09.730Z,44.47
2018-02-20T06:07:38.233Z,40.30
2018-02-20T06:10:06.744Z,42.23
2018-02-20T06:12:35.214Z,34.80
2018-02-20T06:15:03.716Z,37.80
2018-02-20T06:17:32.222Z,40.40
2018-02-20T06:20:00.754Z,41.90
2018-02-20T06:22:29.222Z,36.57
2018-02-20T06:24:57.687Z,42.97
2018-02-20T06:27:26.190Z,38.10
2018-02-20T06:29:54.655Z,45.13
2018-02-20T06:32:23.139Z,43.33
2018-02-20T06:34:51.676Z,38.90
2018-02-20T06:37:20.145Z,34.60
2018-02-20T06:39:48.690Z,42.90
2018-02-20T06:42:17.202Z,38.77
2018-02-20T06:44:45.774Z,41.83
2018-02-20T06:47:14.243Z,38.60
2018-02-20T06:49:42.776Z,39.43
2018-02-20T06:52:11.255Z,33.37
2018-02-20T06:54:39.762Z,34.77
2018-02-20T06:57:08.240Z,34.13
2018-02-20T06:59:36.746Z,31.63
2018-02-20T07:02:05.268Z,36.90
2018-02-20T07:04:33.920Z,40.93
2018-02-20T07:07:02.379Z,41.63
2018-02-20T07:09:30.850Z,34.77
2018-02-20T07:11:59.373Z,33.30
2018-02-20T07:14:27.846Z,34.17
2018-02-20T07:16:56.365Z,33.30
2018-02-20T07:19:24.844Z,39.77
2018-02-20T07:21:53.319Z,39.37
2018-02-20T07:24:21.803Z,39.57
2018-02-20T07:26:50.269Z,36.57
2018-02-20T07:29:18.798Z,31.73
2018-02-20T07:31:47.278Z,35.53
2018-02-20T07:34:15.754Z,31.63
2018-02-20T07:36:44.280Z,31.87
2018-02-20T07:39:12.790Z,33.00
2018-02-20T07:41:41.261Z,32.80
2018-02-20T07:44:09.755Z,36.13
2018-02-20T07:46:38.230Z,30.33
2018-02-20T07:49:06.699Z,33.03
2018-02-20T07:51:35.210Z,33.40
2018-02-20T07:54:03.723Z,32.37
2018-02-20T07:56:32.229Z,34.90
2018-02-20T07:59:00.713Z,38.33
2018-02-20T08:01:29.245Z,36.47
2018-02-20T08:03:57.794Z,36.63
2018-02-20T08:06:26.243Z,32.80
2018-02-20T08:08:54.744Z,37.07
2018-02-20T08:11:23.214Z,36.40
2018-02-20T08:13:51.726Z,33.20
2018-02-20T08:16:20.210Z,31.13
2018-02-20T08:18:48.718Z,29.57
2018-02-20T08:21:17.222Z,27.47
2018-02-20T08:23:45.747Z,34.83
2018-02-20T08:26:14.250Z,25.33
2018-02-20T08:28:42.807Z,32.07
2018-02-20T08:31:11.270Z,25.60
2018-02-20T08:33:39.746Z,28.03
2018-02-20T08:36:08.261Z,29.23
2018-02-20T08:38:36.722Z,29.10
2018-02-20T08:41:05.231Z,26.23
2018-02-20T08:43:33.754Z,29.33
2018-02-20T08:46:02.249Z,30.90
2018-02-20T08:48:30.827Z,28.87
2018-02-20T08:50:59.319Z,29.53
2018-02-20T08:53:27.788Z,30.53
2018-02-20T08:55:56.457Z,29.03
2018-02-20T08:58:24.932Z,39.60
2018-02-20T09:00:53.394Z,29.63
2018-02-20T09:03:21.906Z,27.20
2018-02-20T09:05:50.369Z,29.43
2018-02-20T09:08:18.886Z,28.80
2018-02-20T09:10:47.335Z,32.93
2018-02-20T09:13:15.834Z,31.60
2018-02-20T09:15:44.318Z,29.97
2018-02-20T09:18:12.808Z,29.50
2018-02-20T09:20:41.274Z,43.60
2018-02-20T09:23:09.815Z,31.37
2018-02-20T09:25:38.288Z,28.33
2018-02-20T09:28:06.790Z,25.93
2018-02-20T09:30:35.336Z,28.73
2018-02-20T09:33:03.806Z,23.13
2018-02-20T09:35:32.421Z,22.60
2018-02-20T09:38:00.925Z,24.63
2018-02-20T09:40:29.427Z,23.53
2018-02-20T09:42:57.930Z,26.03
2018-02-20T09:45:26.438Z,22.10
2018-02-20T09:47:54.934Z,22.73
2018-02-20T09:50:23.402Z,24.93
2018-02-20T09:52:51.909Z,19.37
2018-02-20T09:55:20.385Z,28.40
2018-02-20T09:57:48.894Z,23.17
2018-02-20T10:00:17.364Z,22.20
2018-02-20T10:02:45.875Z,19.20
2018-02-20T10:05:14.409Z,21.93
2018-02-20T10:07:42.886Z,20.57
2018-02-20T10:10:11.358Z,21.33
2018-02-20T10:12:39.876Z,20.70
2018-02-20T10:15:08.362Z,18.37
2018-02-20T10:17:36.898Z,19.93
2018-02-20T10:20:05.366Z,21.83
2018-02-20T10:22:33.856Z,21.30
2018-02-20T10:25:02.386Z,20.17
2018-02-20T10:27:30.914Z,18.57
2018-02-20T10:29:59.378Z,19.00
2018-02-20T10:32:27.878Z,18.13
2018-02-20T10:34:56.448Z,19.73
2018-02-20T10:37:24.972Z,20.03
2018-02-20T10:39:53.461Z,19.27
2018-02-20T10:42:21.966Z,17.63
2018-02-20T10:44:50.609Z,16.90
2018-02-20T10:47:19.098Z,17.50
2018-02-20T10:49:47.626Z,15.97
2018-02-20T10:52:16.118Z,16.33
2018-02-20T10:54:44.575Z,15.77
2018-02-20T10:57:13.070Z,17.23
2018-02-20T10:59:41.577Z,15.43
2018-02-20T11:02:10.074Z,14.73
2018-02-20T11:04:38.578Z,14.90
2018-02-20T11:07:07.046Z,15.20
2018-02-20T11:09:35.566Z,15.77
2018-02-20T11:12:04.026Z,18.43
2018-02-20T11:14:32.467Z,16.83
2018-02-20T11:17:00.953Z,18.27
2018-02-20T11:19:29.445Z,15.03
2018-02-20T11:21:57.954Z,15.40
2018-02-20T11:24:26.414Z,16.50
2018-02-20T11:26:54.873Z,17.60
2018-02-20T11:29:23.366Z,15.60
2018-02-20T11:31:51.883Z,15.30
2018-02-20T11:34:20.352Z,15.80
2018-02-20T11:36:48.901Z,15.20
2018-02-20T11:39:17.386Z,15.60
2018-02-20T11:41:45.894Z,14.10
2018-02-20T11:44:14.354Z,14.50
2018-02-20T11:46:42.814Z,14.10
2018-02-20T11:49:11.318Z,14.00
2018-02-20T11:51:39.787Z,16.80
2018-02-20T11:54:08.302Z,16.73
2018-02-20T11:56:36.806Z,14.70
2018-02-20T11:59:05.274Z,12.20
2018-02-20T12:01:33.762Z,15.43
2018-02-20T12:04:02.313Z,14.10
2018-02-20T12:06:30.793Z,18.80
2018-02-20T12:08:59.258Z,17.37
2018-02-20T12:11:27.757Z,18.73
2018-02-20T12:13:56.264Z,14.27
2018-02-20T12:16:24.753Z,16.33
2018-02-20T12:18:53.227Z,23.97
2018-02-20T12:21:21.722Z,17.10
2018-02-20T12:23:50.226Z,15.83
2018-02-20T12:26:18.722Z,15.70
2018-02-20T12:28:47.193Z,17.47
2018-02-20T12:31:15.693Z,14.30
2018-02-20T12:33:44.178Z,12.73
2018-02-20T12:36:12.630Z,12.13
2018-02-20T12:38:41.151Z,13.63
2018-02-20T12:41:09.626Z,13.43
2018-02-20T12:43:38.107Z,12.53
2018-02-20T12:46:06.602Z,14.20
2018-02-20T12:48:35.091Z,12.43
2018-02-20T12:51:03.563Z,13.30
2018-02-20T12:53:32.069Z,12.30
2018-02-20T12:56:00.599Z,12.90
2018-02-20T12:58:29.158Z,11.93
2018-02-20T13:00:57.629Z,12.07
2018-02-20T13:03:26.092Z,12.80
2018-02-20T13:05:54.579Z,12.53
2018-02-20T13:08:23.083Z,12.97
2018-02-20T13:10:51.586Z,12.10
2018-02-20T13:13:20.092Z,12.47
2018-02-20T13:15:48.599Z,13.27
2018-02-20T13:18:17.110Z,14.53
2018-02-20T13:20:45.605Z,14.60
2018-02-20T13:23:14.084Z,13.17
2018-02-20T13:25:42.602Z,13.77
2018-02-20T13:28:11.059Z,13.97
2018-02-20T13:30:39.566Z,15.67
2018-02-20T13:33:08.058Z,18.67
2018-02-20T13:35:36.521Z,16.33
2018-02-20T13:38:05.010Z,16.53
2018-02-20T13:40:33.509Z,19.83
2018-02-20T13:43:01.980Z,20.00
2018-02-20T13:45:30.485Z,18.17
2018-02-20T13:47:59.750Z,18.67
2018-02-20T13:50:28.195Z,21.27
2018-02-20T13:52:56.722Z,22.57
2018-02-20T13:55:25.229Z,22.37
2018-02-20T13:57:53.682Z,21.87
2018-02-20T14:00:22.137Z,21.40
2018-02-20T14:02:50.637Z,22.00
2018-02-20T14:05:19.118Z,21.67
2018-02-20T14:07:47.637Z,22.73
2018-02-20T14:10:16.090Z,22.70
2018-02-20T14:12:44.607Z,27.33
2018-02-20T14:15:13.084Z,26.00
2018-02-20T14:17:41.578Z,25.27
2018-02-20T14:20:10.078Z,26.57
2018-02-20T14:22:38.543Z,30.03
2018-02-20T14:25:07.028Z,25.07
2018-02-20T14:27:35.498Z,26.27
2018-02-20T14:30:04.059Z,28.67
2018-02-20T14:32:32.526Z,27.97
2018-02-20T14:35:00.982Z,23.10
2018-02-20T14:37:29.478Z,26.20
2018-02-20T14:39:57.977Z,27.37
2018-02-20T14:42:26.470Z,24.43
2018-02-20T14:44:54.990Z,25.53
2018-02-20T14:47:23.518Z,24.20
2018-02-20T14:49:52.036Z,22.63
2018-02-20T14:52:20.559Z,22.83
2018-02-20T14:54:49.019Z,24.80
2018-02-20T14:57:17.547Z,25.40
2018-02-20T14:59:46.050Z,24.33
2018-02-20T15:02:14.550Z,27.07
2018-02-20T15:04:43.069Z,27.80
2018-02-20T15:07:11.542Z,27.73
2018-02-20T15:09:40.106Z,29.07
2018-02-20T15:12:08.613Z,27.07
2018-02-20T15:14:37.153Z,30.33
2018-02-20T15:17:05.606Z,25.10
2018-02-20T15:19:34.071Z,22.13
2018-02-20T15:22:02.589Z,25.83
2018-02-20T15:24:31.060Z,24.70
2018-02-20T15:26:59.576Z,24.83
2018-02-20T15:29:28.061Z,30.83
2018-02-20T15:31:56.522Z,30.77
2018-02-20T15:34:25.003Z,27.50
2018-02-20T15:36:53.466Z,34.53
2018-02-20T15:39:21.984Z,33.17
2018-02-20T15:41:50.442Z,26.67
2018-02-20T15:44:18.943Z,21.23
2018-02-20T15:46:47.443Z,29.97
2018-02-20T15:49:15.952Z,27.80
2018-02-20T15:51:44.417Z,26.00
2018-02-20T15:54:12.922Z,25.67
2018-02-20T15:56:41.454Z,32.57
2018-02-20T15:59:09.902Z,28.07
2018-02-20T16:01:38.399Z,26.20
2018-02-20T16:04:06.894Z,33.57
2018-02-20T16:06:35.394Z,27.20
2018-02-20T16:09:03.936Z,28.63
2018-02-20T16:11:32.418Z,30.90
2018-02-20T16:14:06.483Z,26.53
2018-02-20T16:16:35.023Z,26.40
2018-02-20T16:19:03.501Z,27.53
2018-02-20T16:21:31.958Z,28.17
2018-02-20T16:24:00.458Z,26.23
2018-02-20T16:26:29.002Z,24.17
2018-02-20T16:28:57.466Z,24.47
2018-02-20T16:31:25.923Z,27.47
2018-02-20T16:33:54.417Z,27.97
2018-02-20T16:36:22.875Z,26.87
2018-02-20T16:38:51.373Z,28.23
2018-02-20T16:41:19.830Z,36.73
2018-02-20T16:43:48.322Z,30.40
2018-02-20T16:46:16.814Z,29.23
2018-02-20T16:48:45.274Z,29.63
2018-02-20T16:51:13.770Z,33.87
2018-02-20T16:53:42.208Z,41.30
2018-02-20T16:56:10.702Z,39.97
2018-02-20T16:58:39.162Z,38.60
2018-02-20T17:01:07.674Z,38.70
2018-02-20T17:03:36.138Z,36.93
2018-02-20T17:06:04.598Z,32.13
2018-02-20T17:08:33.102Z,32.43
2018-02-20T17:11:01.576Z,34.07
2018-02-20T17:13:30.114Z,36.90
2018-02-20T17:15:58.624Z,39.33
2018-02-20T17:18:27.142Z,35.20
2018-02-20T17:20:55.602Z,33.03
2018-02-20T17:23:24.062Z,37.13
2018-02-20T17:25:52.562Z,32.53
2018-02-20T17:28:21.022Z,37.33
2018-02-20T17:30:49.528Z,31.77
2018-02-20T17:33:17.986Z,52.37
2018-02-20T17:35:46.489Z,42.90
2018-02-20T17:38:14.950Z,40.00
2018-02-20T17:40:43.458Z,41.87
2018-02-20T17:43:11.976Z,39.87
2018-02-20T17:45:40.437Z,40.23
2018-02-20T17:48:08.989Z,33.83
2018-02-20T17:50:37.474Z,33.73
2018-02-20T17:53:05.931Z,35.23
2018-02-20T17:55:34.427Z,40.37
2018-02-20T17:58:02.887Z,37.10
2018-02-20T18:00:31.390Z,36.53
2018-02-20T18:02:59.847Z,40.40
2018-02-20T18:05:28.401Z,38.37
2018-02-20T18:07:56.858Z,36.97
2018-02-20T18:10:25.354Z,37.70
2018-02-20T18:12:53.858Z,37.60
2018-02-20T18:15:22.355Z,36.80
2018-02-20T18:17:50.814Z,36.37
2018-02-20T18:20:19.306Z,37.33
2018-02-20T18:22:47.805Z,39.87
2018-02-20T18:25:16.298Z,37.27
2018-02-20T18:27:44.794Z,38.07
2018-02-20T18:30:13.250Z,36.53
2018-02-20T18:32:41.742Z,37.00
2018-02-20T18:35:10.198Z,31.70
2018-02-20T18:37:38.692Z,32.47
2018-02-20T18:40:07.165Z,27.23
2018-02-20T18:42:35.666Z,30.27
2018-02-20T18:45:04.130Z,26.70
2018-02-20T18:47:32.635Z,25.90
2018-02-20T18:50:01.108Z,25.87
2018-02-20T18:52:29.606Z,24.30
2018-02-20T18:54:58.091Z,25.87
2018-02-20T18:57:26.578Z,27.57
2018-02-20T18:59:55.115Z,24.97
2018-02-20T19:02:23.573Z,26.30
2018-02-20T19:04:52.038Z,28.63
2018-02-20T19:07:20.543Z,30.70
2018-02-20T19:09:49.002Z,31.43
2018-02-20T19:12:17.490Z,33.83
2018-02-20T19:14:45.967Z,30.20
2018-02-20T19:17:14.470Z,22.63
2018-02-20T19:19:42.944Z,23.03
2018-02-20T19:22:11.407Z,18.33
2018-02-20T19:24:39.914Z,18.47
2018-02-20T19:27:08.384Z,18.50
2018-02-20T19:29:36.877Z,16.73
2018-02-20T19:32:05.377Z,17.43
2018-02-20T19:34:33.867Z,17.33
2018-02-20T19:37:02.364Z,16.47
2018-02-20T19:39:30.846Z,15.43
2018-02-20T19:41:59.352Z,15.87
2018-02-20T19:44:27.831Z,16.40
2018-02-20T19:46:56.346Z,16.23
2018-02-20T19:49:24.840Z,16.20
2018-02-20T19:51:53.298Z,16.07
2018-02-20T19:54:21.820Z,16.90
2018-02-20T19:56:50.319Z,19.70
2018-02-20T19:59:18.782Z,17.97
2018-02-20T20:01:47.278Z,17.30
2018-02-20T20:04:15.805Z,16.03
2018-02-20T20:06:44.278Z,16.40
2018-02-20T20:09:12.782Z,18.83
2018-02-20T20:11:41.283Z,19.30
2018-02-20T20:14:09.752Z,17.03
2018-02-20T20:16:38.273Z,16.73
2018-02-20T20:19:06.829Z,20.33
2018-02-20T20:21:35.328Z,18.00
2018-02-20T20:24:03.798Z,16.43
2018-02-20T20:26:32.266Z,17.40
2018-02-20T20:29:00.771Z,17.40
2018-02-20T20:31:29.266Z,17.50
2018-02-20T20:33:57.722Z,18.00
2018-02-20T20:36:26.220Z,18.23
2018-02-20T20:38:54.743Z,19.43
2018-02-20T20:41:23.201Z,18.57
2018-02-20T20:43:51.705Z,20.87
2018-02-20T20:46:20.191Z,19.53
2018-02-20T20:48:48.670Z,18.57
2018-02-20T20:51:17.166Z,20.47
2018-02-20T20:53:45.628Z,17.43
2018-02-20T20:56:14.126Z,17.30
2018-02-20T20:58:42.595Z,18.07
2018-02-20T21:01:11.090Z,18.57
2018-02-20T21:03:39.596Z,18.33
2018-02-20T21:06:08.065Z,24.47
2018-02-20T21:08:36.557Z,26.70
2018-02-20T21:11:05.058Z,26.87
2018-02-20T21:13:33.522Z,22.70
2018-02-20T21:16:01.978Z,19.37
2018-02-20T21:18:30.485Z,22.93
2018-02-20T21:20:58.942Z,17.77
2018-02-20T21:23:27.442Z,17.37
2018-02-20T21:25:55.934Z,23.77
2018-02-20T21:28:24.400Z,20.23
2018-02-20T21:30:52.898Z,20.53
2018-02-20T21:33:21.354Z,23.97
2018-02-20T21:35:49.842Z,25.13
2018-02-20T21:38:18.337Z,20.03
2018-02-20T21:40:46.838Z,23.53
2018-02-20T21:43:15.333Z,17.37
2018-02-20T21:45:43.821Z,21.10
2018-02-20T21:48:12.281Z,18.03
2018-02-20T21:50:40.780Z,23.03
2018-02-20T21:53:09.263Z,20.60
2018-02-20T21:55:37.719Z,23.23
2018-02-20T21:58:06.274Z,17.40
2018-02-20T22:00:34.742Z,18.77
2018-02-20T22:03:03.252Z,21.27
2018-02-20T22:05:32.331Z,18.73
2018-02-20T22:08:00.790Z,20.73
2018-02-20T22:10:29.282Z,18.30
2018-02-20T22:12:57.738Z,19.20
2018-02-20T22:15:26.233Z,20.43
2018-02-20T22:17:54.738Z,19.93
2018-02-20T22:20:23.193Z,19.37
2018-02-20T22:22:51.646Z,20.13
2018-02-20T22:25:20.152Z,19.50
2018-02-20T22:27:48.654Z,21.63
2018-02-20T22:30:17.106Z,22.77
2018-02-20T22:32:45.589Z,22.70
2018-02-20T22:35:14.099Z,21.13
2018-02-20T22:37:42.563Z,21.90
2018-02-20T22:40:11.065Z,20.50
2018-02-20T22:42:39.570Z,23.10
2018-02-20T22:45:08.026Z,20.90
2018-02-20T22:47:36.486Z,25.63
2018-02-20T22:50:05.012Z,26.83
2018-02-20T22:52:33.474Z,26.93
2018-02-20T22:55:01.978Z,22.37
2018-02-20T22:57:30.495Z,20.67
2018-02-20T22:59:58.998Z,24.73
2018-02-20T23:02:27.467Z,24.03
2018-02-20T23:04:55.932Z,25.00
2018-02-20T23:07:24.442Z,20.23
2018-02-20T23:09:52.901Z,25.67
2018-02-20T23:12:21.362Z,24.47
2018-02-20T23:14:49.863Z,22.40
2018-02-20T23:17:18.326Z,25.07
2018-02-20T23:19:46.798Z,21.87
2018-02-20T23:22:15.329Z,26.93
2018-02-20T23:24:44.730Z,31.80
2018-02-20T23:27:13.189Z,23.33
2018-02-20T23:29:41.688Z,25.30
2018-02-20T23:32:10.181Z,22.17
2018-02-20T23:34:38.717Z,22.50
2018-02-20T23:37:07.218Z,24.40
2018-02-20T23:39:35.722Z,21.93
2018-02-20T23:42:04.181Z,25.43
2018-02-20T23:44:32.679Z,22.20
2018-02-20T23:47:01.150Z,26.37
2018-02-20T23:49:29.664Z,25.57
2018-02-20T23:51:58.142Z,25.63
2018-02-20T23:54:26.620Z,24.50
2018-02-20T23:56:55.134Z,25.63
2018-02-20T23:59:23.631Z,25.40
